Time;durP1;ratioP1;P1;durP2;ratioP2;P2;SDS_P1;SDS_P2;PMS_P1;PMS_P2;Temp;Humidity;BMP_temperature;BMP_pressure;BME280_temperature;BME280_humidity;BME280_pressure;Samples;Min_cycle;Max_cycle;Signal;HPM_P1;HPM_P2
2021/04/16 00:02:02;;;;;;;5.40;1.88;;;18.10;95.70;;;;;;5113843;28;20494;-73
2021/04/16 00:04:28;;;;;;;2.83;1.70;;;18.00;95.70;;;;;;5114258;28;20019;-73
2021/04/16 00:06:53;;;;;;;4.20;1.60;;;18.00;96.10;;;;;;5113863;28;20391;-73
2021/04/16 00:09:19;;;;;;;4.00;1.77;;;18.00;96.00;;;;;;5113894;28;20083;-72
2021/04/16 00:11:45;;;;;;;4.05;1.70;;;18.00;96.10;;;;;;5079417;28;20028;-74
2021/04/16 00:14:12;;;;;;;5.45;1.85;;;17.90;96.20;;;;;;5093435;28;20090;-74
2021/04/16 00:16:38;;;;;;;4.45;1.63;;;17.90;96.30;;;;;;5075170;28;20027;-74
2021/04/16 00:19:04;;;;;;;6.15;1.70;;;17.90;96.60;;;;;;5104272;28;20035;-74
2021/04/16 00:21:29;;;;;;;4.30;1.75;;;17.90;96.90;;;;;;5103616;28;20028;-73
2021/04/16 00:23:55;;;;;;;3.65;1.50;;;17.90;96.90;;;;;;5113539;28;20024;-73
2021/04/16 00:26:21;;;;;;;2.83;1.98;;;17.90;96.90;;;;;;5113473;28;20432;-74
2021/04/16 00:28:47;;;;;;;5.47;1.80;;;17.90;97.10;;;;;;5113482;28;20027;-74
2021/04/16 00:31:22;;;;;;;4.65;1.90;;;17.80;97.10;;;;;;5113565;28;20376;-73
2021/04/16 00:33:48;;;;;;;6.22;1.65;;;17.80;97.00;;;;;;5113506;28;20027;-74
2021/04/16 00:36:15;;;;;;;5.88;2.00;;;17.80;97.40;;;;;;5113276;28;20433;-73
2021/04/16 00:38:41;;;;;;;5.68;1.77;;;17.80;97.10;;;;;;5113335;28;20015;-74
2021/04/16 00:41:14;;;;;;;5.03;1.65;;;17.80;97.20;;;;;;5100141;28;20028;-74
2021/04/16 00:43:40;;;;;;;4.45;1.42;;;17.70;96.90;;;;;;5101300;28;20032;-74
2021/04/16 00:46:17;;;;;;;3.35;1.63;;;17.70;96.90;;;;;;5112818;28;20080;-73
2021/04/16 00:48:52;;;;;;;2.97;1.60;;;17.70;97.00;;;;;;5092841;28;20099;-73
2021/04/16 00:51:42;;;;;;;3.20;1.60;;;17.70;97.10;;;;;;5098736;28;20468;-73
2021/04/16 00:54:24;;;;;;;5.57;1.60;;;17.70;97.30;;;;;;5112942;28;20455;-73
2021/04/16 00:56:51;;;;;;;9.77;1.83;;;17.60;97.10;;;;;;5112487;28;20589;-74
2021/04/16 00:59:22;;;;;;;6.00;1.63;;;17.60;97.20;;;;;;5112959;28;20031;-74
2021/04/16 01:01:48;;;;;;;3.42;1.38;;;17.60;97.30;;;;;;5112920;28;20034;-73
2021/04/16 01:04:14;;;;;;;3.85;1.70;;;17.60;97.10;;;;;;5112718;28;20027;-73
2021/04/16 01:06:39;;;;;;;3.63;1.70;;;17.60;97.40;;;;;;5112538;28;20026;-73
2021/04/16 01:09:06;;;;;;;4.55;1.88;;;17.60;97.20;;;;;;5112743;28;20038;-74
2021/04/16 01:11:31;;;;;;;5.13;1.42;;;17.50;97.20;;;;;;5111952;28;20096;-73
2021/04/16 01:13:58;;;;;;;3.20;1.65;;;17.50;97.10;;;;;;5112666;28;20020;-74
2021/04/16 01:16:29;;;;;;;3.88;1.52;;;17.50;97.00;;;;;;5112628;28;20479;-74
2021/04/16 01:18:56;;;;;;;5.35;1.50;;;17.50;97.00;;;;;;5126647;27;20039;-73
2021/04/16 01:21:31;;;;;;;3.60;1.65;;;17.50;96.90;;;;;;5112369;28;20157;-73
2021/04/16 01:24:20;;;;;;;2.63;1.42;;;17.50;96.80;;;;;;5112534;28;20030;-73
2021/04/16 01:26:47;;;;;;;3.28;1.50;;;17.50;96.90;;;;;;5112636;28;20040;-73
2021/04/16 01:29:12;;;;;;;2.47;1.60;;;17.50;96.90;;;;;;5112514;28;20019;-73
2021/04/16 01:31:47;;;;;;;2.97;1.60;;;17.40;97.00;;;;;;5112296;28;20020;-73
2021/04/16 01:34:23;;;;;;;2.95;1.27;;;17.40;97.00;;;;;;5112589;28;20024;-73
2021/04/16 01:36:55;;;;;;;2.13;1.30;;;17.40;96.90;;;;;;5112476;28;20024;-73
2021/04/16 01:39:22;;;;;;;3.00;1.60;;;17.40;96.70;;;;;;5094187;28;20046;-73
2021/04/16 01:41:48;;;;;;;3.00;1.30;;;17.40;96.80;;;;;;5096195;28;20023;-74
2021/04/16 01:44:17;;;;;;;2.65;1.30;;;17.30;96.80;;;;;;5112246;28;20468;-74
2021/04/16 01:46:58;;;;;;;3.60;1.52;;;17.40;97.20;;;;;;5111292;28;20020;-74
2021/04/16 01:49:43;;;;;;;2.17;1.35;;;17.30;96.80;;;;;;5112288;28;20487;-72
2021/04/16 01:52:10;;;;;;;;;;;17.30;97.00;;;;;;5112712;28;20107;-74
2021/04/16 01:54:39;;;;;;;2.78;1.40;;;17.30;96.80;;;;;;5112064;28;20287;-72
2021/04/16 01:57:08;;;;;;;3.63;1.45;;;17.30;97.00;;;;;;5112315;28;20106;-71
2021/04/16 01:59:35;;;;;;;2.90;1.17;;;17.30;96.90;;;;;;5112403;28;20115;-73
2021/04/16 02:02:07;;;;;;;3.00;1.50;;;17.30;96.90;;;;;;5112309;28;20109;-74
2021/04/16 02:04:33;;;;;;;5.13;1.73;;;17.20;96.80;;;;;;5112436;28;20038;-74
2021/04/16 02:06:59;;;;;;;1.95;1.17;;;17.20;96.80;;;;;;5111962;28;20023;-74
2021/04/16 02:09:31;;;;;;;3.22;1.23;;;17.20;96.90;;;;;;5113479;28;20035;-71
2021/04/16 02:11:57;;;;;;;4.25;1.67;;;17.30;97.10;;;;;;5116015;28;20062;-75
2021/04/16 02:14:27;;;;;;;3.47;1.33;;;17.20;97.00;;;;;;5115628;28;20059;-73
2021/04/16 02:16:56;;;;;;;4.30;1.70;;;17.20;97.10;;;;;;5116176;28;20524;-73
2021/04/16 02:19:22;;;;;;;2.85;1.38;;;17.20;97.00;;;;;;5131876;27;20023;-73
2021/04/16 02:21:49;;;;;;;2.90;1.30;;;17.20;97.00;;;;;;5115862;28;20360;-72
2021/04/16 02:24:15;;;;;;;3.78;1.40;;;17.20;97.00;;;;;;5115989;28;20052;-72
2021/04/16 02:26:40;;;;;;;3.42;1.58;;;17.20;97.30;;;;;;5115841;28;20020;-73
2021/04/16 02:29:08;;;;;;;5.15;1.52;;;17.10;97.00;;;;;;5116176;28;20048;-72
2021/04/16 02:31:34;;;;;;;2.55;1.50;;;17.20;97.10;;;;;;5116192;28;20027;-72
2021/04/16 02:34:00;;;;;;;2.67;1.30;;;17.20;97.20;;;;;;5115962;28;20023;-72
2021/04/16 02:36:26;;;;;;;4.47;1.30;;;17.10;96.90;;;;;;5115737;28;20417;-72
2021/04/16 02:38:54;;;;;;;2.53;1.08;;;17.10;96.90;;;;;;5115649;28;20027;-73
2021/04/16 02:41:20;;;;;;;2.22;1.42;;;17.10;96.90;;;;;;5114805;28;20104;-72
2021/04/16 02:43:46;;;;;;;2.20;1.38;;;17.10;97.00;;;;;;5115595;28;20153;-73
2021/04/16 02:46:12;;;;;;;3.15;1.52;;;17.10;97.00;;;;;;5115435;28;20094;-73
2021/04/16 02:48:37;;;;;;;3.65;1.40;;;17.10;96.90;;;;;;5105940;28;20036;-74
2021/04/16 02:51:03;;;;;;;4.38;1.50;;;17.10;97.00;;;;;;5108455;28;20034;-72
2021/04/16 02:53:29;;;;;;;5.55;1.40;;;17.00;97.30;;;;;;5115442;28;20030;-71
2021/04/16 02:55:54;;;;;;;3.30;1.30;;;17.00;96.90;;;;;;5115333;28;20098;-71
2021/04/16 02:58:20;;;;;;;2.67;1.20;;;17.00;96.90;;;;;;5115294;28;20023;-71
2021/04/16 03:00:46;;;;;;;2.67;1.30;;;17.00;96.90;;;;;;5109027;28;20028;-72
2021/04/16 03:03:11;;;;;;;3.42;1.48;;;17.00;96.80;;;;;;5094603;28;20502;-70
2021/04/16 03:05:37;;;;;;;3.80;1.40;;;16.90;96.70;;;;;;5095057;28;20549;-71
2021/04/16 03:08:03;;;;;;;2.13;1.40;;;17.00;97.10;;;;;;5094627;28;20426;-71
2021/04/16 03:10:32;;;;;;;3.03;1.80;;;16.90;96.80;;;;;;5094694;28;20070;-73
2021/04/16 03:12:57;;;;;;;2.35;1.27;;;16.90;97.00;;;;;;5094615;28;20020;-74
2021/04/16 03:15:23;;;;;;;3.95;1.60;;;16.90;97.20;;;;;;5109889;28;20042;-74
2021/04/16 03:17:50;;;;;;;3.03;1.25;;;16.90;97.10;;;;;;5114846;28;20065;-74
2021/04/16 03:20:20;;;;;;;6.50;1.20;;;16.90;96.90;;;;;;5114327;28;20032;-74
2021/04/16 03:22:45;;;;;;;3.95;1.40;;;16.90;97.60;;;;;;5114698;28;20095;-75
2021/04/16 03:25:12;;;;;;;5.25;1.70;;;16.80;97.10;;;;;;5114995;28;20475;-75
2021/04/16 03:27:38;;;;;;;3.38;1.50;;;16.90;97.20;;;;;;5114872;28;20035;-74
2021/04/16 03:30:07;;;;;;;4.95;1.70;;;16.90;97.20;;;;;;5114566;28;20468;-75
2021/04/16 03:32:32;;;;;;;2.53;1.20;;;16.80;97.10;;;;;;5113394;28;20164;-76
2021/04/16 03:34:58;;;;;;;2.30;1.20;;;16.80;97.20;;;;;;5098872;28;20137;-75
2021/04/16 03:37:23;;;;;;;3.42;1.50;;;16.80;97.00;;;;;;5094107;28;20035;-75
2021/04/16 03:39:49;;;;;;;2.92;1.48;;;16.80;97.10;;;;;;5094119;28;20020;-75
2021/04/16 03:42:15;;;;;;;3.95;1.50;;;16.80;97.30;;;;;;5094046;28;20533;-74
2021/04/16 03:44:40;;;;;;;2.42;1.30;;;16.80;97.00;;;;;;5094320;28;20024;-76
2021/04/16 03:47:06;;;;;;;3.15;1.30;;;16.80;97.10;;;;;;5093756;28;20032;-75
2021/04/16 03:49:31;;;;;;;3.30;1.50;;;16.80;96.90;;;;;;5093917;28;20047;-74
2021/04/16 03:52:00;;;;;;;3.67;1.40;;;16.70;96.80;;;;;;5093880;28;20017;-72
2021/04/16 03:54:28;;;;;;;4.95;1.40;;;16.70;96.90;;;;;;5093784;28;20020;-73
2021/04/16 03:56:54;;;;;;;1.85;1.25;;;16.70;97.00;;;;;;5093826;28;20031;-74
2021/04/16 03:59:21;;;;;;;3.65;1.70;;;16.70;97.00;;;;;;5093673;28;20421;-74
2021/04/16 04:01:47;;;;;;;3.83;1.80;;;16.70;97.00;;;;;;5106964;28;20453;-74
2021/04/16 04:04:16;;;;;;;4.07;1.40;;;16.70;97.00;;;;;;5096143;28;20032;-74
2021/04/16 04:06:42;;;;;;;4.63;1.73;;;16.70;96.90;;;;;;5106396;28;20086;-74
2021/04/16 04:09:08;;;;;;;2.50;1.30;;;16.70;96.80;;;;;;5113837;28;20032;-74
2021/04/16 04:11:34;;;;;;;3.80;1.65;;;16.60;96.80;;;;;;5113918;28;20092;-73
2021/04/16 04:14:01;;;;;;;3.30;1.35;;;16.60;97.20;;;;;;5095518;28;20032;-73
2021/04/16 04:16:28;;;;;;;3.00;1.35;;;16.60;96.90;;;;;;5113906;28;20023;-74
2021/04/16 04:18:54;;;;;;;3.17;1.55;;;16.60;96.60;;;;;;5113826;28;20085;-73
2021/04/16 04:21:20;;;;;;;5.50;1.50;;;16.60;96.80;;;;;;5113767;28;20122;-73
2021/04/16 04:23:46;;;;;;;3.45;1.10;;;16.60;96.90;;;;;;5113572;28;20028;-73
2021/04/16 04:26:11;;;;;;;4.05;1.77;;;16.60;96.70;;;;;;5113904;28;20030;-73
2021/04/16 04:28:37;;;;;;;3.22;1.40;;;16.60;96.70;;;;;;5112337;28;20483;-72
2021/04/16 04:31:03;;;;;;;4.10;1.50;;;16.60;96.80;;;;;;5112649;28;20019;-72
2021/04/16 04:33:29;;;;;;;2.92;1.50;;;16.60;96.70;;;;;;5113449;28;20019;-73
2021/04/16 04:35:54;;;;;;;3.05;1.42;;;16.60;97.30;;;;;;5112717;28;20486;-72
2021/04/16 04:38:20;;;;;;;2.35;1.30;;;16.50;96.90;;;;;;5113359;28;20040;-73
2021/04/16 04:40:46;;;;;;;2.25;1.15;;;16.40;96.40;;;;;;5104986;28;20031;-74
2021/04/16 04:43:12;;;;;;;2.15;1.45;;;16.40;96.10;;;;;;5093006;28;20089;-74
2021/04/16 04:45:39;;;;;;;4.10;1.70;;;16.40;95.40;;;;;;5110042;28;20050;-74
2021/04/16 04:48:05;;;;;;;2.67;1.25;;;16.40;95.00;;;;;;5097615;28;20399;-73
2021/04/16 04:50:30;;;;;;;2.20;1.48;;;16.40;94.80;;;;;;5128950;27;20016;-75
2021/04/16 04:52:57;;;;;;;2.22;1.35;;;16.40;95.10;;;;;;5112312;28;20034;-75
2021/04/16 04:55:33;;;;;;;2.45;1.40;;;16.40;94.80;;;;;;5112923;28;20015;-74
2021/04/16 04:57:59;;;;;;;4.93;1.70;;;16.40;94.80;;;;;;5113009;28;20024;-78
2021/04/16 05:00:26;;;;;;;2.38;1.25;;;16.40;94.80;;;;;;5111253;28;20028;-74
2021/04/16 05:02:51;;;;;;;5.40;1.52;;;16.40;94.90;;;;;;5113168;28;20019;-74
2021/04/16 05:05:19;;;;;;;2.42;1.50;;;16.40;95.20;;;;;;5113090;28;20020;-74
2021/04/16 05:07:44;;;;;;;2.53;1.40;;;16.40;95.40;;;;;;5113192;28;20044;-75
2021/04/16 05:10:11;;;;;;;4.00;1.70;;;16.40;95.70;;;;;;5112978;28;20468;-75
2021/04/16 05:12:37;;;;;;;3.58;1.20;;;16.40;96.00;;;;;;5094678;28;20607;-75
2021/04/16 05:15:05;;;;;;;3.35;1.40;;;16.40;95.80;;;;;;5112921;28;20464;-73
2021/04/16 05:17:31;;;;;;;3.63;1.48;;;16.40;96.30;;;;;;5096935;28;20032;-74
2021/04/16 05:19:56;;;;;;;2.03;1.40;;;16.40;96.10;;;;;;5100657;28;20028;-72
2021/04/16 05:22:22;;;;;;;2.97;1.52;;;16.30;96.20;;;;;;5093664;28;20024;-71
2021/04/16 05:24:47;;;;;;;3.50;1.50;;;16.40;96.30;;;;;;5104556;28;20440;-72
2021/04/16 05:27:15;;;;;;;4.85;1.33;;;16.40;96.30;;;;;;5092528;28;20103;-73
2021/04/16 05:29:41;;;;;;;2.53;1.13;;;16.40;96.60;;;;;;5103020;28;20051;-74
2021/04/16 05:32:08;;;;;;;4.30;1.35;;;16.40;96.30;;;;;;5112552;28;20508;-74
2021/04/16 05:34:34;;;;;;;2.95;1.80;;;16.30;96.40;;;;;;5111301;28;20054;-73
2021/04/16 05:37:00;;;;;;;3.22;1.45;;;16.40;96.30;;;;;;5112559;28;20098;-73
2021/04/16 05:39:26;;;;;;;3.83;1.60;;;16.40;96.80;;;;;;5112409;28;20492;-73
2021/04/16 05:41:52;;;;;;;3.10;1.60;;;16.30;96.20;;;;;;5112458;28;20329;-73
2021/04/16 05:44:18;;;;;;;2.92;1.30;;;16.30;96.90;;;;;;5112605;28;20031;-74
2021/04/16 05:46:44;;;;;;;2.17;1.42;;;16.30;96.50;;;;;;5111333;28;20115;-73
2021/04/16 05:49:09;;;;;;;5.85;1.63;;;16.30;96.50;;;;;;5093641;28;20483;-67
2021/04/16 05:51:35;;;;;;;2.30;1.55;;;16.30;96.90;;;;;;5102934;28;20026;-71
2021/04/16 05:54:01;;;;;;;2.75;1.70;;;16.20;90.10;;;;;;5111037;28;20035;-70
2021/04/16 05:56:27;;;;;;;2.88;1.63;;;16.00;87.40;;;;;;5112353;28;20015;-70
2021/04/16 05:58:53;;;;;;;3.15;1.67;;;15.80;87.60;;;;;;5111904;28;20443;-68
2021/04/16 06:01:18;;;;;;;4.70;2.05;;;15.70;89.30;;;;;;5110969;28;20031;-70
2021/04/16 06:03:46;;;;;;;4.60;2.13;;;15.70;88.30;;;;;;5110752;28;20059;-70
2021/04/16 06:06:12;;;;;;;8.38;1.83;;;15.80;90.80;;;;;;5112155;28;20055;-69
2021/04/16 06:08:38;;;;;;;6.22;2.10;;;15.90;90.00;;;;;;5112088;28;20044;-69
2021/04/16 06:11:04;;;;;;;3.25;1.75;;;16.00;90.30;;;;;;5111594;28;20364;-68
2021/04/16 06:13:30;;;;;;;4.38;1.88;;;16.00;90.30;;;;;;5110790;28;20471;-67
2021/04/16 06:15:56;;;;;;;3.33;1.95;;;16.10;88.90;;;;;;5112218;28;20028;-68
2021/04/16 06:18:23;;;;;;;2.50;1.52;;;16.20;87.50;;;;;;5111742;28;20054;-69
2021/04/16 06:20:50;;;;;;;2.67;1.70;;;16.30;86.40;;;;;;5111056;28;20034;-68
2021/04/16 06:23:16;;;;;;;3.83;1.38;;;16.40;85.70;;;;;;5110994;28;20035;-68
2021/04/16 06:25:41;;;;;;;3.97;1.90;;;16.50;84.60;;;;;;5111977;28;20360;-69
2021/04/16 06:28:08;;;;;;;2.15;1.55;;;16.60;85.30;;;;;;5111268;28;20038;-72
2021/04/16 06:30:34;;;;;;;5.40;1.50;;;16.70;85.10;;;;;;5111835;28;20026;-73
2021/04/16 06:33:24;;;;;;;2.55;1.50;;;16.60;85.00;;;;;;5120670;28;20059;-70
2021/04/16 06:35:53;;;;;;;2.25;1.30;;;16.60;85.20;;;;;;5112143;28;20061;-71
2021/04/16 06:38:29;;;;;;;4.78;1.70;;;16.50;85.80;;;;;;5111418;28;20035;-70
2021/04/16 06:40:56;;;;;;;8.88;1.50;;;16.60;87.80;;;;;;5111136;28;20035;-70
2021/04/16 06:43:39;;;;;;;5.10;1.67;;;16.60;89.40;;;;;;5109996;28;20436;-73
2021/04/16 06:46:12;;;;;;;3.53;1.42;;;16.60;90.00;;;;;;5110813;28;20028;-72
2021/04/16 06:48:38;;;;;;;3.63;1.52;;;16.60;89.90;;;;;;5102711;28;20031;-72
2021/04/16 06:51:04;;;;;;;3.70;1.20;;;16.50;90.00;;;;;;5111407;28;20033;-70
2021/04/16 06:53:32;;;;;;;4.35;1.48;;;16.50;90.00;;;;;;5111563;28;20024;-70
2021/04/16 06:56:02;;;;;;;2.33;1.20;;;16.50;90.00;;;;;;5114676;28;20028;-72
2021/04/16 06:58:35;;;;;;;3.10;1.40;;;16.50;90.10;;;;;;5114574;28;20039;-71
2021/04/16 07:01:13;;;;;;;3.47;1.42;;;16.50;90.00;;;;;;5114822;28;20023;-71
2021/04/16 07:03:43;;;;;;;2.95;1.60;;;16.40;90.00;;;;;;5114865;28;20112;-73
2021/04/16 07:06:20;;;;;;;4.90;2.40;;;16.40;90.10;;;;;;5114067;28;20073;-72
2021/04/16 07:09:10;;;;;;;2.85;1.67;;;16.30;88.20;;;;;;5114795;28;20411;-70
2021/04/16 07:11:43;;;;;;;2.38;1.58;;;16.50;87.40;;;;;;5112873;28;20032;-72
2021/04/16 07:14:25;;;;;;;3.13;1.67;;;16.80;86.30;;;;;;5108082;28;20070;-73
2021/04/16 07:16:51;;;;;;;2.33;1.27;;;17.10;86.70;;;;;;5108545;27;20683;-74
2021/04/16 07:19:21;;;;;;;2.67;1.38;;;17.30;85.90;;;;;;5107279;28;20094;-72
2021/04/16 07:21:47;;;;;;;3.25;1.63;;;17.40;85.60;;;;;;5105177;28;20382;-72
2021/04/16 07:24:16;;;;;;;1.77;1.38;;;17.50;85.20;;;;;;5112950;28;20028;-72
2021/04/16 07:26:47;;;;;;;3.08;1.80;;;17.60;85.90;;;;;;5113572;28;20072;-72
2021/04/16 07:29:34;;;;;;;3.55;1.50;;;17.70;84.90;;;;;;5104701;28;20173;-73
2021/04/16 07:32:01;;;;;;;2.72;1.45;;;17.80;85.30;;;;;;5114172;28;20485;-70
2021/04/16 07:34:32;;;;;;;2.42;1.10;;;17.90;85.00;;;;;;5113323;28;20100;-74
2021/04/16 07:37:19;;;;;;;2.45;1.20;;;17.90;85.60;;;;;;5108690;28;20020;-71
2021/04/16 07:39:51;;;;;;;3.75;1.30;;;18.00;84.50;;;;;;5106941;28;20074;-72
2021/04/16 07:42:41;;;;;;;2.67;1.27;;;18.00;84.70;;;;;;5095773;28;20039;-72
2021/04/16 07:45:09;;;;;;;2.25;1.15;;;18.00;84.70;;;;;;5104763;28;20028;-72
2021/04/16 07:47:36;;;;;;;2.83;1.10;;;18.00;83.80;;;;;;5108559;28;20039;-72
2021/04/16 07:50:26;;;;;;;2.33;1.13;;;18.00;83.50;;;;;;5112809;28;20015;-68
2021/04/16 07:52:52;;;;;;;4.13;1.17;;;18.00;83.80;;;;;;5108923;28;20121;-68
2021/04/16 07:55:31;;;;;;;2.67;1.20;;;18.00;83.80;;;;;;5103298;28;20492;-71
2021/04/16 07:58:01;;;;;;;4.80;1.20;;;17.90;83.80;;;;;;5106512;28;20024;-71
2021/04/16 08:00:43;;;;;;;3.08;1.15;;;17.80;84.10;;;;;;5093817;28;20020;-70
2021/04/16 08:03:26;;;;;;;1.55;1.10;;;17.70;84.40;;;;;;5104748;28;20035;-70
2021/04/16 08:05:54;;;;;;;2.45;1.02;;;17.60;84.60;;;;;;5112941;28;20022;-71
2021/04/16 08:08:34;;;;;;;2.53;1.20;;;17.60;84.70;;;;;;5113512;28;20131;-70
2021/04/16 08:11:05;;;;;;;2.33;1.27;;;17.50;84.80;;;;;;5114073;28;20030;-70
2021/04/16 08:13:52;;;;;;;2.45;1.10;;;17.50;84.90;;;;;;5114020;28;20023;-70
2021/04/16 08:16:41;;;;;;;2.55;1.15;;;17.40;85.00;;;;;;5113985;28;20373;-70
2021/04/16 08:19:24;;;;;;;3.08;1.20;;;17.40;85.00;;;;;;5113900;28;20391;-70
2021/04/16 08:21:55;;;;;;;4.30;1.52;;;17.40;85.00;;;;;;5113856;28;20027;-70
2021/04/16 08:24:28;;;;;;;2.65;1.27;;;17.30;85.10;;;;;;5113772;28;20487;-71
2021/04/16 08:27:13;;;;;;;1.45;1.00;;;17.30;85.20;;;;;;5114152;28;20035;-71
2021/04/16 08:29:42;;;;;;;2.33;1.27;;;17.30;85.20;;;;;;5113762;28;20034;-70
2021/04/16 08:32:38;;;;;;;2.50;1.42;;;17.20;85.20;;;;;;5113652;28;20084;-71
2021/04/16 08:35:07;;;;;;;2.65;0.80;;;17.20;85.20;;;;;;5113496;28;20051;-71
2021/04/16 08:38:15;;;;;;;1.98;1.10;;;17.20;85.30;;;;;;5113500;28;20022;-70
2021/04/16 08:40:43;;;;;;;2.47;1.33;;;17.20;85.40;;;;;;5113393;28;20471;-70
2021/04/16 08:43:31;;;;;;;1.85;1.25;;;17.10;85.10;;;;;;5113318;28;20110;-70
2021/04/16 08:45:58;;;;;;;2.17;1.13;;;17.10;85.10;;;;;;5113719;28;20024;-70
2021/04/16 08:48:30;;;;;;;4.20;1.42;;;17.10;85.00;;;;;;5113449;28;20035;-70
2021/04/16 08:51:02;;;;;;;2.15;1.25;;;17.10;84.70;;;;;;5113805;28;20023;-70
2021/04/16 08:53:28;;;;;;;2.42;0.93;;;17.10;84.50;;;;;;5113357;28;20118;-70
2021/04/16 08:55:54;;;;;;;2.88;1.20;;;17.00;84.40;;;;;;5113501;28;20051;-70
2021/04/16 08:58:30;;;;;;;2.25;1.20;;;17.00;84.90;;;;;;5113319;28;20042;-70
2021/04/16 09:01:07;;;;;;;3.90;1.25;;;17.00;84.10;;;;;;5113463;28;20028;-71
2021/04/16 09:03:52;;;;;;;1.27;1.10;;;17.00;83.90;;;;;;5112975;28;20027;-70
2021/04/16 09:06:29;;;;;;;1.77;0.93;;;17.00;83.80;;;;;;5112982;28;20376;-70
2021/04/16 09:08:56;;;;;;;1.70;1.10;;;17.00;83.60;;;;;;5113166;28;20035;-70
2021/04/16 09:11:41;;;;;;;2.58;1.10;;;17.00;83.50;;;;;;5112885;28;20112;-70
2021/04/16 09:14:07;;;;;;;3.03;1.15;;;17.00;83.50;;;;;;5112660;28;20027;-70
2021/04/16 09:16:45;;;;;;;2.92;1.35;;;16.90;83.30;;;;;;5112814;28;20032;-71
2021/04/16 09:19:23;;;;;;;2.03;1.23;;;16.90;83.40;;;;;;5112596;28;20031;-70
2021/04/16 09:22:04;;;;;;;2.35;1.13;;;16.90;83.30;;;;;;5112615;28;20058;-70
2021/04/16 09:24:46;;;;;;;1.92;1.10;;;16.90;83.40;;;;;;5112765;28;20605;-70
2021/04/16 09:27:31;;;;;;;2.53;1.35;;;16.90;83.10;;;;;;5112664;28;20069;-69
2021/04/16 09:30:00;;;;;;;2.38;1.20;;;16.90;83.00;;;;;;5112947;28;20031;-69
2021/04/16 09:32:38;;;;;;;1.50;0.98;;;16.90;82.90;;;;;;5112699;28;20030;-69
2021/04/16 09:35:19;;;;;;;2.55;1.20;;;16.90;82.90;;;;;;5112432;28;20055;-69
2021/04/16 09:37:48;;;;;;;2.20;1.30;;;16.90;82.80;;;;;;5094222;28;20020;-70
2021/04/16 09:40:28;;;;;;;1.77;1.10;;;16.90;82.70;;;;;;5094298;28;20494;-70
2021/04/16 09:43:09;;;;;;;1.85;1.00;;;16.90;82.70;;;;;;5112530;28;20032;-71
2021/04/16 09:45:35;;;;;;;1.92;1.00;;;16.90;82.80;;;;;;5112434;28;20467;-71
2021/04/16 09:48:28;;;;;;;2.20;1.25;;;16.90;82.60;;;;;;5112589;28;20047;-71
2021/04/16 09:50:57;;;;;;;2.63;1.13;;;16.90;82.70;;;;;;5081023;28;20043;-70
2021/04/16 09:53:27;;;;;;;1.52;1.10;;;16.90;82.50;;;;;;5112407;28;20047;-69
2021/04/16 09:55:59;;;;;;;3.17;1.25;;;16.90;82.60;;;;;;5112266;28;20024;-69
2021/04/16 09:58:31;;;;;;;1.70;1.20;;;16.90;82.50;;;;;;5112284;28;20024;-69
2021/04/16 10:00:56;;;;;;;2.40;1.20;;;16.90;82.50;;;;;;5112168;28;20027;-68
2021/04/16 10:03:48;;;;;;;2.13;1.33;;;16.90;82.60;;;;;;5112284;28;20023;-70
2021/04/16 10:06:29;;;;;;;1.88;1.20;;;16.80;82.40;;;;;;5112149;28;20028;-70
2021/04/16 10:09:18;;;;;;;1.85;0.95;;;16.90;82.30;;;;;;5112168;28;20043;-70
2021/04/16 10:11:47;;;;;;;3.90;1.30;;;16.90;82.50;;;;;;5112278;28;20020;-70
2021/04/16 10:14:21;;;;;;;1.33;0.90;;;16.90;82.30;;;;;;5112121;28;20130;-70
2021/04/16 10:17:01;;;;;;;1.27;0.93;;;16.90;82.30;;;;;;5111935;28;20028;-70
2021/04/16 10:19:31;;;;;;;1.60;1.10;;;16.90;82.10;;;;;;5111893;28;20483;-71
2021/04/16 10:22:06;;;;;;;2.17;0.90;;;16.90;82.00;;;;;;5111965;28;20047;-71
2021/04/16 10:25:30;;;;;;;2.17;1.05;;;16.90;82.00;;;;;;5112170;28;20031;-70
2021/04/16 12:41:27;;;;;;;3.05;1.45;;;18.10;84.90;;;;;;5094392;28;20032;-73
2021/04/16 12:43:53;;;;;;;3.83;1.20;;;18.10;85.70;;;;;;5108986;28;20477;-71
2021/04/16 12:46:32;;;;;;;2.72;1.10;;;18.20;84.30;;;;;;5113155;28;20111;-70
2021/04/16 12:48:57;;;;;;;3.83;1.30;;;18.20;83.20;;;;;;5111650;28;20510;-71
2021/04/16 12:51:23;;;;;;;2.65;1.40;;;18.30;83.20;;;;;;5110257;28;20020;-70
2021/04/16 12:53:49;;;;;;;5.25;1.30;;;18.40;84.00;;;;;;5110935;28;20025;-71
2021/04/16 12:56:37;;;;;;;2.05;1.00;;;18.40;83.60;;;;;;5111269;28;20027;-70
2021/04/16 12:59:13;;;;;;;2.95;1.05;;;18.40;83.50;;;;;;5111428;28;20397;-71
2021/04/16 13:01:38;;;;;;;2.90;1.50;;;18.40;83.40;;;;;;5111247;28;20486;-67
2021/04/16 13:04:05;;;;;;;3.08;1.20;;;18.30;83.90;;;;;;5111525;28;20058;-60
2021/04/16 13:06:37;;;;;;;3.38;1.17;;;18.30;84.10;;;;;;5111542;28;20032;-65
2021/04/16 13:09:05;;;;;;;4.30;1.30;;;18.30;84.30;;;;;;5107998;28;20058;-70
2021/04/16 13:11:31;;;;;;;3.47;1.20;;;18.20;84.40;;;;;;5110407;28;20023;-71
2021/04/16 13:13:57;;;;;;;4.68;1.02;;;18.20;84.70;;;;;;5110825;28;20042;-71
2021/04/16 13:16:24;;;;;;;1.60;1.00;;;18.20;84.50;;;;;;5108542;28;20016;-73
2021/04/16 13:18:53;;;;;;;2.53;1.00;;;18.10;84.20;;;;;;5110878;28;20023;-69
2021/04/16 13:21:39;;;;;;;2.78;1.10;;;18.10;83.90;;;;;;5109970;28;20301;-69
2021/04/16 13:24:07;;;;;;;4.25;1.30;;;18.10;83.70;;;;;;5108028;28;20761;-70
2021/04/16 13:26:33;;;;;;;3.05;1.25;;;18.10;84.00;;;;;;5111172;28;20039;-69
2021/04/16 13:28:58;;;;;;;2.15;1.10;;;18.10;84.50;;;;;;5111162;28;20115;-68
2021/04/16 13:31:26;;;;;;;2.42;1.20;;;18.10;84.80;;;;;;5110604;28;20046;-69
2021/04/16 13:33:53;;;;;;;3.20;1.40;;;18.00;84.80;;;;;;5111022;28;20024;-69
2021/04/16 13:36:23;;;;;;;1.60;1.10;;;18.00;84.80;;;;;;5111487;28;20442;-69
2021/04/16 13:38:49;;;;;;;1.60;1.00;;;18.10;84.70;;;;;;5107698;28;20016;-68
2021/04/16 13:41:15;;;;;;;1.73;1.00;;;18.00;85.00;;;;;;5112028;28;20027;-68
2021/04/16 13:43:40;;;;;;;3.83;1.40;;;18.10;85.70;;;;;;5112739;28;20077;-70
2021/04/16 13:46:14;;;;;;;2.67;0.90;;;18.00;85.40;;;;;;5112392;28;20019;-70
2021/04/16 13:48:39;;;;;;;2.15;1.08;;;17.90;85.30;;;;;;5112103;28;20505;-70
2021/04/16 13:51:05;;;;;;;1.60;1.00;;;17.90;85.20;;;;;;5110144;28;20032;-70
2021/04/16 13:53:31;;;;;;;2.60;1.13;;;17.80;85.30;;;;;;5108169;28;20510;-70
2021/04/16 13:55:57;;;;;;;2.65;1.17;;;17.80;85.20;;;;;;5111619;28;20023;-70
2021/04/16 13:58:22;;;;;;;2.58;1.05;;;17.80;85.40;;;;;;5110935;28;20053;-71
2021/04/16 14:00:50;;;;;;;2.70;1.30;;;17.80;85.20;;;;;;5110351;28;20091;-71
2021/04/16 14:03:28;;;;;;;2.70;1.30;;;17.80;85.20;;;;;;5112554;28;20028;-71
2021/04/16 14:05:57;;;;;;;2.88;1.20;;;17.80;85.10;;;;;;5115215;28;20023;-72
2021/04/16 14:08:29;;;;;;;1.88;1.00;;;17.80;85.10;;;;;;5115481;28;20039;-71
2021/04/16 14:10:55;;;;;;;1.95;1.10;;;17.90;86.20;;;;;;5109546;28;20061;-71
2021/04/16 14:13:20;;;;;;;3.45;1.50;;;17.90;86.00;;;;;;5112460;28;20011;-71
2021/04/16 14:15:46;;;;;;;3.97;1.17;;;18.00;85.90;;;;;;5115217;28;20031;-71
2021/04/16 14:18:29;;;;;;;3.83;1.15;;;18.00;85.80;;;;;;5114301;28;20356;-69
2021/04/16 14:20:55;;;;;;;1.35;1.05;;;18.00;86.00;;;;;;5114165;28;20031;-69
2021/04/16 14:23:22;;;;;;;2.40;1.05;;;18.00;86.00;;;;;;5115341;28;20028;-69
2021/04/16 14:25:48;;;;;;;2.00;1.05;;;18.00;85.70;;;;;;5116050;28;20471;-71
2021/04/16 14:28:15;;;;;;;2.00;1.10;;;17.90;85.50;;;;;;5114944;28;20040;-71
2021/04/16 14:30:42;;;;;;;11.30;1.25;;;17.90;85.70;;;;;;5115624;28;20019;-70
2021/04/16 14:33:14;;;;;;;2.45;1.20;;;17.90;86.50;;;;;;5114548;28;20031;-71
2021/04/16 14:35:41;;;;;;;2.22;0.90;;;18.00;86.40;;;;;;5114194;28;20027;-71
2021/04/16 14:38:06;;;;;;;2.22;1.20;;;18.00;86.30;;;;;;5114412;28;20029;-71
2021/04/16 14:40:32;;;;;;;4.68;1.10;;;17.90;86.20;;;;;;5114969;28;20102;-71
2021/04/16 14:42:58;;;;;;;6.38;1.30;;;17.90;86.30;;;;;;5114905;28;20028;-71
2021/04/16 14:45:29;;;;;;;2.80;1.13;;;18.00;86.50;;;;;;5114634;28;20027;-72
2021/04/16 14:47:56;;;;;;;3.78;1.05;;;17.90;86.90;;;;;;5115205;28;20080;-71
2021/04/16 14:50:24;;;;;;;3.00;1.30;;;17.90;87.10;;;;;;5115236;28;20020;-71
2021/04/16 14:52:51;;;;;;;2.50;0.90;;;17.90;87.30;;;;;;5115397;28;20098;-71
2021/04/16 14:55:26;;;;;;;6.97;1.30;;;17.90;86.60;;;;;;5114912;28;20062;-71
2021/04/16 14:57:55;;;;;;;1.58;0.82;;;17.90;86.50;;;;;;5107275;28;20024;-71
2021/04/16 15:00:23;;;;;;;3.47;1.20;;;17.80;86.40;;;;;;5115432;28;20034;-71
2021/04/16 15:02:49;;;;;;;1.90;1.02;;;17.90;86.20;;;;;;5115378;28;20492;-71
2021/04/16 15:05:18;;;;;;;5.97;1.42;;;17.80;86.00;;;;;;5115022;28;20087;-71
2021/04/16 15:08:07;;;;;;;2.33;1.13;;;17.80;85.60;;;;;;5115302;28;20428;-71
2021/04/16 15:10:40;;;;;;;1.48;0.93;;;17.80;85.70;;;;;;5114509;28;20103;-71
2021/04/16 15:13:07;;;;;;;3.42;0.90;;;17.80;86.10;;;;;;5115324;28;20036;-71
2021/04/16 15:15:39;;;;;;;2.28;1.00;;;17.80;85.80;;;;;;5113849;28;20039;-71
2021/04/16 15:18:07;;;;;;;5.90;1.10;;;17.80;85.80;;;;;;5114815;28;20035;-71